Time;durP1;ratioP1;P1;durP2;ratioP2;P2;SDS_P1;SDS_P2;PMS_P1;PMS_P2;Temp;Humidity;BMP_temperature;BMP_pressure;BME280_temperature;BME280_humidity;BME280_pressure;Samples;Min_cycle;Max_cycle;Signal;HPM_P1;HPM_P2
2022/09/01 13:45:47;;;;;;;2.58;1.30;;;;;;;21.45;42.60;98142.59;1777972;78;22625;-64
2022/09/01 13:48:16;;;;;;;3.35;1.30;;;;;;;21.35;43.15;98142.35;1749085;80;22047;-64
2022/09/01 13:50:45;;;;;;;3.90;1.55;;;;;;;21.23;43.89;98150.08;1750574;79;21300;-63
2022/09/01 13:53:12;;;;;;;2.42;1.40;;;;;;;21.15;44.83;98155.14;1734525;81;21054;-63
2022/09/01 13:55:41;;;;;;;3.72;1.50;;;;;;;21.09;45.33;98159.30;1699519;80;20998;-62
2022/09/01 13:58:09;;;;;;;4.95;1.60;;;;;;;21.04;45.63;98155.45;1760710;79;20940;-62
2022/09/01 14:00:40;;;;;;;7.35;1.62;;;;;;;20.93;46.09;98157.14;1751563;80;21380;-63
2022/09/01 14:03:16;;;;;;;5.83;1.70;;;;;;;20.88;47.01;98156.84;1721080;81;21234;-60
2022/09/01 14:05:46;;;;;;;4.83;1.77;;;;;;;20.83;46.59;98153.02;1718743;83;20892;-61
2022/09/01 14:08:19;;;;;;;6.47;1.67;;;;;;;20.83;46.75;98148.14;1697307;83;21031;-61
2022/09/01 14:10:51;;;;;;;6.42;1.52;;;;;;;20.83;47.42;98153.59;1686042;84;21009;-61
2022/09/01 14:13:22;;;;;;;11.45;1.90;;;;;;;20.80;46.87;98151.00;1678256;84;21075;-60
2022/09/01 14:15:52;;;;;;;2.75;1.60;;;;;;;20.93;47.46;98150.33;1699259;83;21561;-65
2022/09/01 14:18:20;;;;;;;6.67;1.45;;;;;;;21.05;46.91;98151.63;1675780;84;21491;-65
2022/09/01 14:20:53;;;;;;;5.12;1.80;;;;;;;21.15;47.12;98148.33;1696259;83;21511;-67
2022/09/01 14:23:19;;;;;;;4.25;1.50;;;;;;;21.16;45.53;98154.01;1754067;81;20967;-65
2022/09/01 14:25:50;;;;;;;2.58;1.60;;;;;;;21.15;45.67;98148.33;1761879;80;20971;-63
2022/09/01 14:28:17;;;;;;;5.00;1.75;;;;;;;21.41;45.55;98155.93;1762131;80;21253;-63
2022/09/01 14:30:44;;;;;;;4.10;1.70;;;;;;;21.76;45.12;98150.62;1764315;81;20936;-63
2022/09/01 14:33:11;;;;;;;4.25;1.90;;;;;;;21.99;44.17;98158.11;1769038;80;20897;-63
2022/09/01 14:35:43;;;;;;;5.95;1.92;;;;;;;21.94;43.46;98149.64;1762873;81;20964;-63
2022/09/01 14:38:10;;;;;;;1.80;1.42;;;;;;;21.78;43.26;98157.09;1762860;80;21570;-62
2022/09/01 14:40:38;;;;;;;3.17;1.50;;;;;;;21.58;43.74;98160.38;1763849;81;21423;-62
2022/09/01 14:43:08;;;;;;;3.35;1.52;;;;;;;21.44;45.03;98161.44;1765907;80;21060;-62
2022/09/01 14:45:36;;;;;;;5.33;1.90;;;;;;;21.34;45.43;98159.27;1770237;80;21038;-62
2022/09/01 14:48:03;;;;;;;2.30;1.50;;;;;;;21.29;45.19;98167.71;1763136;80;20989;-62
2022/09/01 14:50:32;;;;;;;2.42;1.42;;;;;;;21.25;45.96;98164.13;1759625;80;20959;-62
2022/09/01 14:52:59;;;;;;;4.58;1.55;;;;;;;21.45;45.28;98169.84;1763619;80;21229;-61
2022/09/01 14:55:28;;;;;;;4.17;1.77;;;;;;;21.62;44.99;98167.28;1764745;80;20848;-61
2022/09/01 14:57:55;;;;;;;3.05;1.45;;;;;;;21.96;44.09;98169.73;1766535;80;20965;-61
2022/09/01 15:00:24;;;;;;;3.00;1.47;;;;;;;22.27;43.21;98166.83;1764384;81;20929;-61
2022/09/01 15:02:50;;;;;;;6.22;1.50;;;;;;;22.65;42.60;98170.84;1765843;80;21549;-62
2022/09/01 15:05:17;;;;;;;2.47;1.30;;;;;;;23.06;42.17;98169.94;1762567;80;21289;-61
2022/09/01 15:07:44;;;;;;;1.67;1.12;;;;;;;23.52;41.21;98167.11;1764237;81;20928;-62
2022/09/01 15:10:12;;;;;;;3.10;1.30;;;;;;;23.98;38.77;98175.30;1763770;81;20992;-62
2022/09/01 15:12:39;;;;;;;4.62;1.52;;;;;;;23.98;38.77;98175.30;1763946;81;20932;-63
2022/09/01 15:15:08;;;;;;;4.05;1.35;;;;;;;24.18;38.98;98172.64;1767897;80;20884;-63
2022/09/01 15:17:35;;;;;;;2.70;1.12;;;;;;;24.45;38.38;98175.44;1776517;80;21759;-61
2022/09/01 15:22:49;;;;;;;3.08;2.00;;;;;;;24.61;36.83;98182.64;1764260;80;20988;-62
2022/09/01 15:25:16;;;;;;;4.25;1.27;;;;;;;24.59;36.52;98180.26;1765511;80;20950;-63
2022/09/01 15:27:43;;;;;;;1.30;1.00;;;;;;;24.59;36.27;98176.16;1762983;80;20897;-63
2022/09/01 15:30:15;;;;;;;2.98;1.50;;;;;;;24.65;37.17;98176.60;1763735;81;21175;-63
2022/09/01 15:32:44;;;;;;;2.20;1.30;;;;;;;24.66;35.68;98185.04;1763950;80;21400;-63
2022/09/01 15:35:11;;;;;;;2.45;1.30;;;;;;;24.52;36.45;98180.80;1764261;81;20885;-63
2022/09/01 15:37:38;;;;;;;6.15;2.10;;;;;;;24.40;36.49;98188.09;1764230;81;20988;-63
2022/09/01 15:40:06;;;;;;;4.72;2.20;;;;;;;24.08;36.86;98191.09;1763373;81;20897;-63
2022/09/01 15:42:34;;;;;;;5.95;2.37;;;;;;;23.50;36.60;98185.83;1764070;81;21876;-63
2022/09/01 15:45:03;;;;;;;3.17;2.30;;;;;;;22.28;38.94;98188.27;1773357;80;20985;-63
2022/09/01 15:47:30;;;;;;;3.95;2.25;;;;;;;22.28;38.94;98188.27;1768664;80;20960;-63
2022/09/01 15:49:56;;;;;;;6.05;2.35;;;;;;;21.83;39.51;98187.36;1764690;80;20871;-63
2022/09/01 15:52:23;;;;;;;5.05;2.60;;;;;;;21.45;40.59;98186.76;1774676;80;21121;-63
2022/09/01 15:54:50;;;;;;;5.67;2.90;;;;;;;21.22;41.27;98185.85;1764399;80;21483;-63
2022/09/01 15:57:17;;;;;;;6.15;2.40;;;;;;;21.05;41.52;98189.75;1765250;80;21510;-63
2022/09/01 15:59:44;;;;;;;4.50;2.58;;;;;;;20.82;42.04;98194.22;1768143;80;20928;-63
2022/09/01 16:02:12;;;;;;;14.47;2.87;;;;;;;20.50;42.27;98188.52;1764184;80;21035;-63
2022/09/01 16:04:39;;;;;;;21.77;8.60;;;;;;;20.21;43.18;98191.83;1765393;80;20927;-63
2022/09/01 16:07:06;;;;;;;15.85;7.78;;;;;;;19.92;43.68;98192.21;1769453;80;21229;-63
2022/09/01 16:09:33;;;;;;;19.00;10.78;;;;;;;19.68;44.51;98190.37;1769999;80;20913;-63
2022/09/01 16:11:59;;;;;;;36.28;18.30;;;;;;;19.49;45.03;98188.83;1774615;80;21502;-63
2022/09/01 16:14:27;;;;;;;30.95;15.25;;;;;;;19.30;45.16;98192.68;1770731;80;20873;-63
2022/09/01 16:17:19;;;;;;;16.12;10.25;;;;;;;19.11;45.93;98192.47;1764577;80;20828;-63
2022/09/01 16:20:12;;;;;;;19.42;9.90;;;;;;;18.93;46.49;98197.36;1776037;80;21125;-62
2022/09/01 16:22:47;;;;;;;18.40;10.05;;;;;;;18.74;47.42;98199.03;1764132;80;20881;-62
2022/09/01 16:25:18;;;;;;;19.23;10.23;;;;;;;18.48;48.69;98192.56;1763535;80;21490;-63
2022/09/01 16:27:45;;;;;;;17.90;10.43;;;;;;;18.35;49.11;98196.33;1729108;80;21032;-62
2022/09/01 16:30:17;;;;;;;21.52;11.88;;;;;;;18.19;49.90;98202.16;1764423;80;20901;-63
2022/09/01 16:32:45;;;;;;;19.62;9.53;;;;;;;18.03;50.57;98198.50;1724349;81;21193;-62
2022/09/01 16:35:15;;;;;;;12.05;6.40;;;;;;;17.86;51.14;98198.09;1770424;80;20984;-62
2022/09/01 16:38:13;;;;;;;8.80;5.05;;;;;;;17.73;51.73;98204.00;1767330;80;21004;-62
2022/09/01 16:40:57;;;;;;;7.08;3.10;;;;;;;17.62;52.18;98202.83;1773588;80;20940;-63
2022/09/01 16:43:41;;;;;;;6.62;3.30;;;;;;;17.49;52.81;98213.89;1769029;80;20877;-63
2022/09/01 16:46:26;;;;;;;6.67;2.58;;;;;;;17.38;53.34;98210.77;1707821;81;21856;-63
2022/09/01 16:49:01;;;;;;;5.92;3.00;;;;;;;17.29;53.90;98216.80;1768134;80;21645;-63
2022/09/01 16:51:36;;;;;;;6.28;2.30;;;;;;;17.19;54.63;98219.91;1763424;81;21475;-64
2022/09/01 16:54:37;;;;;;;3.98;2.83;;;;;;;17.12;55.05;98221.53;1762506;81;20893;-64
2022/09/01 16:57:50;;;;;;;9.10;3.00;;;;;;;17.05;55.59;98225.53;1764178;81;20996;-63
2022/09/01 17:00:17;;;;;;;6.05;3.00;;;;;;;16.98;56.20;98223.13;1733803;81;21139;-63
2022/09/01 17:02:57;;;;;;;6.58;3.33;;;;;;;16.87;57.20;98230.00;1764444;81;21444;-63
2022/09/01 17:05:31;;;;;;;13.60;3.52;;;;;;;16.77;58.09;98231.16;1764268;80;20887;-64
2022/09/01 17:08:25;;;;;;;11.55;3.47;;;;;;;16.65;58.87;98240.50;1771298;80;20984;-62
2022/09/01 17:11:06;;;;;;;12.07;3.40;;;;;;;16.48;59.66;98241.09;1763517;81;20974;-62
2022/09/01 17:13:42;;;;;;;17.55;3.35;;;;;;;16.34;60.57;98251.55;1757797;81;22117;-63
2022/09/01 17:16:35;;;;;;;9.65;3.25;;;;;;;16.21;61.30;98249.00;1764165;81;21044;-63
2022/09/01 17:19:09;;;;;;;6.62;2.70;;;;;;;16.06;62.05;98246.81;1758148;80;20850;-63
2022/09/01 17:21:51;;;;;;;7.90;2.90;;;;;;;15.92;62.81;98251.01;1768316;80;20943;-63
2022/09/01 17:24:32;;;;;;;7.87;2.67;;;;;;;15.84;63.18;98256.42;1765793;80;20889;-63
2022/09/01 17:27:06;;;;;;;13.55;3.02;;;;;;;15.79;63.51;98259.27;1762595;80;21308;-63
2022/09/01 17:29:39;;;;;;;13.15;3.70;;;;;;;15.81;64.13;98263.25;1763882;81;20976;-63
2022/09/01 17:32:43;;;;;;;16.27;5.45;;;;;;;15.81;64.62;98270.00;1763675;80;21635;-63
2022/09/01 17:35:19;;;;;;;19.23;7.72;;;;;;;15.82;65.04;98274.30;1770749;80;20936;-63
2022/09/01 17:38:19;;;;;;;25.62;11.08;;;;;;;15.85;65.58;98270.95;1730413;80;21478;-62
2022/09/01 17:40:54;;;;;;;26.15;11.50;;;;;;;15.83;65.78;98276.45;1766222;80;21230;-62
2022/09/01 17:43:58;;;;;;;26.37;11.15;;;;;;;15.76;66.03;98282.88;1766208;80;26298;-63
2022/09/01 17:46:36;;;;;;;30.48;10.85;;;;;;;15.69;66.58;98285.48;1763509;80;21062;-63
2022/09/01 17:49:17;;;;;;;24.27;10.95;;;;;;;15.62;67.02;98289.20;1764093;80;20984;-63
2022/09/01 17:51:52;;;;;;;32.70;11.08;;;;;;;15.58;67.52;98290.95;1762858;80;20880;-62
2022/09/01 17:54:59;;;;;;;21.80;10.93;;;;;;;15.58;67.82;98291.50;1771278;80;21191;-63
2022/09/01 17:57:54;;;;;;;21.62;12.15;;;;;;;15.56;67.72;98289.13;1774411;80;20849;-63
2022/09/01 18:00:35;;;;;;;25.30;12.78;;;;;;;15.52;67.61;98292.77;1766375;80;20920;-63
2022/09/01 18:03:44;;;;;;;23.05;10.25;;;;;;;15.47;68.08;98301.02;1771471;80;21060;-63
2022/09/01 18:06:34;;;;;;;22.07;8.90;;;;;;;15.41;68.40;98299.52;1772963;80;20948;-62
2022/09/01 18:09:01;;;;;;;19.23;8.88;;;;;;;15.31;68.77;98306.58;1766463;80;22145;-62
2022/09/01 18:11:42;;;;;;;23.20;8.10;;;;;;;15.25;69.22;98307.81;1772247;80;21328;-62
2022/09/01 18:14:15;;;;;;;19.25;9.18;;;;;;;15.17;69.55;98312.64;1770451;80;21011;-63
2022/09/01 18:17:05;;;;;;;33.35;11.68;;;;;;;15.08;69.94;98312.59;1764262;81;21004;-62
2022/09/01 18:19:37;;;;;;;23.40;10.63;;;;;;;14.99;70.26;98311.22;1765833;80;21421;-62
2022/09/01 18:22:09;;;;;;;20.82;9.63;;;;;;;14.90;70.73;98310.93;1769977;80;20927;-63
2022/09/01 18:24:54;;;;;;;25.90;9.85;;;;;;;14.81;71.00;98313.59;1766877;80;20974;-62
2022/09/01 18:27:22;;;;;;;26.57;9.45;;;;;;;14.70;71.35;98317.64;1771040;80;21000;-63
2022/09/01 18:29:50;;;;;;;22.60;10.35;;;;;;;14.59;71.85;98323.59;1761403;80;21514;-62
2022/09/01 18:32:44;;;;;;;18.20;9.83;;;;;;;14.52;72.28;98319.99;1768317;80;20962;-62
2022/09/01 18:35:25;;;;;;;21.45;11.40;;;;;;;14.48;72.68;98331.16;1762213;80;21242;-62
2022/09/01 18:38:21;;;;;;;22.58;12.95;;;;;;;14.47;72.86;98334.13;1769199;80;20939;-64
2022/09/01 18:41:22;;;;;;;24.43;13.78;;;;;;;14.44;72.92;98330.16;1771984;80;20977;-63
2022/09/01 18:44:22;;;;;;;21.55;14.05;;;;;;;14.38;73.12;98336.78;1764244;81;20959;-63
2022/09/01 18:47:06;;;;;;;20.97;13.75;;;;;;;14.29;73.38;98335.34;1766296;80;21569;-62
2022/09/01 18:49:48;;;;;;;23.50;13.65;;;;;;;14.21;73.62;98336.61;1765524;80;21283;-63
2022/09/01 18:53:02;;;;;;;29.15;16.07;;;;;;;14.15;73.75;98340.53;1715338;80;21410;-63
2022/09/01 18:55:50;;;;;;;28.65;16.62;;;;;;;14.12;74.02;98341.13;1765267;80;21099;-63
2022/09/01 18:58:35;;;;;;;32.05;18.32;;;;;;;14.07;74.33;98348.78;1771999;80;20956;-63
2022/09/01 19:01:08;;;;;;;32.60;18.02;;;;;;;14.04;74.53;98347.23;1763747;80;20933;-63
2022/09/01 19:03:53;;;;;;;32.95;18.60;;;;;;;13.95;74.76;98347.16;1764330;81;21268;-63
2022/09/01 19:06:46;;;;;;;38.00;19.55;;;;;;;13.90;74.94;98346.47;1766830;80;20932;-63
2022/09/01 19:09:30;;;;;;;37.28;19.23;;;;;;;13.79;75.19;98347.80;1767864;80;20976;-63
2022/09/01 19:12:20;;;;;;;35.10;18.48;;;;;;;13.68;75.48;98348.00;1745985;81;20952;-63
2022/09/01 19:15:08;;;;;;;31.45;17.35;;;;;;;13.56;75.77;98351.78;1764339;80;20912;-63
2022/09/01 19:17:52;;;;;;;34.98;17.48;;;;;;;13.47;76.15;98351.44;1763827;80;21450;-63
2022/09/01 19:20:36;;;;;;;30.08;16.20;;;;;;;13.39;76.58;98352.13;1723293;82;21002;-63
2022/09/01 19:23:27;;;;;;;28.87;16.60;;;;;;;13.33;76.93;98351.42;1767811;81;21364;-64
2022/09/01 19:25:58;;;;;;;22.65;12.13;;;;;;;13.32;77.21;98357.91;1768337;80;20908;-64
2022/09/01 19:28:46;;;;;;;12.47;7.62;;;;;;;13.28;77.24;98354.23;1766532;80;20920;-62
2022/09/01 19:31:33;;;;;;;11.70;6.45;;;;;;;13.24;77.06;98361.28;1762213;80;21136;-64
2022/09/01 19:34:37;;;;;;;18.15;8.05;;;;;;;13.16;76.66;98364.69;1776784;80;20971;-62
2022/09/01 19:37:05;;;;;;;14.23;8.83;;;;;;;13.08;76.90;98359.98;1715397;83;20900;-62
2022/09/01 19:39:38;;;;;;;14.65;7.37;;;;;;;13.08;77.15;98360.52;1753918;81;20899;-62
2022/09/01 19:42:28;;;;;;;15.63;8.48;;;;;;;13.10;77.02;98351.06;1764473;80;20911;-63
2022/09/01 19:45:26;;;;;;;14.70;7.87;;;;;;;13.13;76.88;98354.52;1770998;80;21209;-64
2022/09/01 19:48:14;;;;;;;13.20;7.53;;;;;;;13.14;76.86;98363.37;1777151;80;21458;-62
2022/09/01 19:50:50;;;;;;;17.42;7.95;;;;;;;13.17;76.73;98358.19;1753445;80;20971;-62
2022/09/01 19:53:37;;;;;;;21.27;8.55;;;;;;;13.20;76.43;98358.14;1764583;81;20885;-63
2022/09/01 19:56:21;;;;;;;17.65;9.80;;;;;;;13.18;76.37;98359.80;1764395;81;20925;-63
2022/09/01 19:58:57;;;;;;;21.77;10.18;;;;;;;13.18;76.56;98363.83;1767841;80;21116;-63
2022/09/01 20:01:47;;;;;;;16.90;9.30;;;;;;;13.15;76.49;98368.45;1766545;80;20877;-63
2022/09/01 20:04:31;;;;;;;18.02;8.83;;;;;;;13.11;76.28;98372.03;1764820;80;20867;-64
2022/09/01 20:07:00;;;;;;;18.15;8.50;;;;;;;13.04;76.29;98372.40;1768846;80;20884;-63
2022/09/01 20:09:41;;;;;;;16.65;8.18;;;;;;;12.99;76.11;98377.33;1763715;80;20922;-63
2022/09/01 20:12:22;;;;;;;15.05;7.60;;;;;;;13.02;76.27;98377.28;1764784;80;22152;-63
2022/09/01 20:15:25;;;;;;;12.90;7.15;;;;;;;13.02;75.63;98379.97;1765752;80;21035;-63
2022/09/01 20:17:56;;;;;;;16.87;7.72;;;;;;;13.04;75.50;98381.27;1770014;80;20908;-64
2022/09/01 20:20:28;;;;;;;12.68;7.12;;;;;;;13.08;75.51;98383.38;1768122;80;20979;-62
2022/09/01 20:23:03;;;;;;;13.83;6.80;;;;;;;13.09;75.04;98384.45;1717512;81;21001;-62
2022/09/01 20:25:38;;;;;;;11.63;6.87;;;;;;;13.12;74.96;98391.89;1764471;81;21721;-62
2022/09/01 20:28:34;;;;;;;12.28;6.30;;;;;;;13.10;74.57;98386.02;1764298;81;21616;-62
2022/09/01 20:31:06;;;;;;;9.38;5.90;;;;;;;13.05;74.22;98384.73;1768020;81;20929;-62
2022/09/01 20:33:55;;;;;;;9.85;6.05;;;;;;;13.03;74.09;98386.92;1765336;80;20907;-62
2022/09/01 20:36:40;;;;;;;10.08;6.10;;;;;;;13.00;73.93;98399.06;1769239;80;20875;-62
2022/09/01 20:42:20;;;;;;;12.95;5.70;;;;;;;12.93;73.93;98405.95;1764242;81;20925;-62
2022/09/01 20:44:54;;;;;;;9.83;6.30;;;;;;;12.89;74.03;98408.95;1764351;81;21391;-63
2022/09/01 20:47:25;;;;;;;11.83;6.00;;;;;;;12.84;73.98;98409.03;1762673;80;20893;-64
2022/09/01 20:49:51;;;;;;;11.95;6.55;;;;;;;12.79;74.26;98408.58;1768077;80;20981;-61
2022/09/01 20:52:36;;;;;;;8.78;5.78;;;;;;;12.82;74.52;98415.25;1766904;80;21102;-61
2022/09/01 20:55:17;;;;;;;9.25;6.05;;;;;;;12.81;74.72;98415.02;1763820;80;20936;-63
2022/09/01 20:58:10;;;;;;;9.00;5.65;;;;;;;12.72;74.95;98419.44;1764030;81;20877;-62
2022/09/01 21:01:01;;;;;;;11.57;5.80;;;;;;;12.65;74.88;98417.67;1763731;80;21379;-63
2022/09/01 21:03:40;;;;;;;16.05;9.65;;;;;;;12.65;75.08;98414.45;1701235;81;21034;-64
2022/09/01 21:06:25;;;;;;;22.25;9.70;;;;;;;12.65;75.23;98423.05;1764948;80;21272;-64
2022/09/01 21:09:11;;;;;;;15.80;9.78;;;;;;;12.60;75.32;98419.12;1739535;80;20896;-64
2022/09/01 21:12:07;;;;;;;19.77;11.45;;;;;;;12.54;75.56;98426.99;1765213;80;20958;-61
2022/09/01 21:14:55;;;;;;;18.62;11.33;;;;;;;12.50;76.03;98428.67;1777759;80;20864;-62
2022/09/01 21:17:53;;;;;;;16.82;10.43;;;;;;;12.47;76.11;98425.22;1775932;80;20939;-63
2022/09/01 21:20:31;;;;;;;18.05;8.88;;;;;;;12.44;76.27;98429.28;1763635;80;21094;-62
2022/09/01 21:22:59;;;;;;;15.15;7.28;;;;;;;12.39;76.30;98428.58;1758649;80;20885;-62
2022/09/01 21:25:25;;;;;;;14.90;7.80;;;;;;;12.30;76.54;98425.19;1766578;80;20963;-62
2022/09/01 21:27:58;;;;;;;17.65;9.90;;;;;;;12.28;76.71;98432.75;1769028;80;20973;-62
2022/09/01 21:30:24;;;;;;;14.73;7.83;;;;;;;12.23;76.79;98424.76;1773076;80;20924;-62
2022/09/01 21:32:52;;;;;;;7.62;4.55;;;;;;;12.19;76.96;98421.06;1764607;80;21106;-62
2022/09/01 21:35:20;;;;;;;10.55;4.95;;;;;;;12.16;76.73;98424.86;1767178;80;21510;-62
2022/09/01 21:37:47;;;;;;;9.85;5.60;;;;;;;12.13;76.49;98423.55;1767730;80;21404;-62
2022/09/01 21:40:15;;;;;;;9.88;6.53;;;;;;;12.14;76.67;98421.66;1766185;80;20888;-62
2022/09/01 21:42:50;;;;;;;15.23;7.35;;;;;;;12.12;76.69;98426.00;1764559;80;20983;-62
2022/09/01 21:45:17;;;;;;;13.85;7.33;;;;;;;12.08;76.79;98420.15;1735550;81;21131;-63
2022/09/01 21:47:46;;;;;;;17.35;8.10;;;;;;;12.06;76.97;98423.11;1764136;81;21365;-63
2022/09/01 21:50:14;;;;;;;7.50;5.03;;;;;;;12.03;76.91;98425.05;1761090;80;20982;-63
2022/09/01 21:52:40;;;;;;;12.28;5.50;;;;;;;11.97;76.97;98420.81;1764113;81;20932;-63
2022/09/01 21:55:08;;;;;;;9.28;4.85;;;;;;;11.93;77.05;98421.14;1767358;80;20984;-63
2022/09/01 21:57:36;;;;;;;8.03;5.03;;;;;;;11.89;77.09;98422.81;1770646;80;21821;-63
2022/09/01 22:00:13;;;;;;;9.83;5.20;;;;;;;11.89;77.25;98424.16;1770154;80;21502;-63
2022/09/01 22:02:43;;;;;;;6.87;4.97;;;;;;;11.91;77.16;98423.86;1765661;80;20997;-63
2022/09/01 22:05:10;;;;;;;10.15;5.00;;;;;;;11.90;76.96;98420.38;1763238;80;20975;-63
2022/09/01 22:07:41;;;;;;;8.13;5.00;;;;;;;11.93;77.01;98419.00;1763337;80;21393;-63
2022/09/01 22:10:11;;;;;;;9.10;4.67;;;;;;;11.95;76.94;98425.67;1767078;80;22035;-63
2022/09/01 22:12:40;;;;;;;7.83;5.20;;;;;;;11.92;76.95;98418.19;1762703;80;20842;-63
2022/09/01 22:15:09;;;;;;;10.20;5.92;;;;;;;11.88;77.10;98421.20;1763011;80;20843;-63
2022/09/01 22:17:37;;;;;;;7.65;5.12;;;;;;;11.89;77.06;98428.72;1774601;80;21443;-63
2022/09/01 22:20:06;;;;;;;10.32;4.75;;;;;;;11.87;77.01;98429.55;1771569;80;20926;-63
2022/09/01 22:22:33;;;;;;;8.20;5.00;;;;;;;11.86;77.08;98426.60;1767641;80;21733;-63
2022/09/01 22:25:06;;;;;;;8.38;4.72;;;;;;;11.83;77.19;98431.20;1771856;80;20936;-63
2022/09/01 22:27:33;;;;;;;9.83;5.25;;;;;;;11.79;77.45;98435.01;1765294;80;20932;-63
2022/09/01 22:30:00;;;;;;;6.25;4.55;;;;;;;11.79;77.59;98430.98;1774888;80;21439;-63
2022/09/01 22:32:27;;;;;;;9.13;4.50;;;;;;;11.79;77.60;98435.01;1769076;80;20888;-63
2022/09/01 22:34:54;;;;;;;9.53;4.90;;;;;;;11.79;77.42;98430.98;1763451;80;21020;-63
2022/09/01 22:37:21;;;;;;;7.15;4.75;;;;;;;11.79;77.37;98435.01;1764382;81;20917;-63
2022/09/01 22:39:48;;;;;;;10.80;4.72;;;;;;;11.78;77.26;98429.38;1763543;80;21443;-63
2022/09/01 22:42:15;;;;;;;7.03;4.60;;;;;;;11.77;77.29;98439.88;1764050;80;20940;-63
2022/09/01 22:44:42;;;;;;;6.87;3.67;;;;;;;11.71;77.40;98435.62;1762313;80;21467;-64
2022/09/01 22:47:09;;;;;;;7.58;3.60;;;;;;;11.69;77.26;98433.78;1763744;80;21128;-63
2022/09/01 22:49:36;;;;;;;5.17;3.20;;;;;;;11.67;77.11;98441.29;1763690;81;20838;-63
2022/09/01 22:52:03;;;;;;;10.13;3.35;;;;;;;11.67;77.29;98441.29;1764547;80;21048;-63
2022/09/01 22:54:39;;;;;;;6.40;3.10;;;;;;;11.63;76.78;98434.91;1768332;80;21074;-63
2022/09/01 22:57:06;;;;;;;6.75;3.00;;;;;;;11.57;76.30;98437.38;1763986;80;21468;-62
2022/09/01 22:59:34;;;;;;;4.90;2.60;;;;;;;11.56;75.79;98435.80;1766355;80;21154;-62
2022/09/01 23:02:00;;;;;;;5.78;3.40;;;;;;;11.56;75.89;98443.84;1766281;80;20979;-63
2022/09/01 23:04:30;;;;;;;6.22;3.67;;;;;;;11.56;76.26;98439.25;1763849;81;20913;-62
2022/09/01 23:06:56;;;;;;;7.53;4.70;;;;;;;11.57;76.54;98441.40;1765850;80;20985;-62
2022/09/01 23:09:23;;;;;;;8.73;4.53;;;;;;;11.57;76.54;98442.73;1764430;81;21002;-62
2022/09/01 23:11:51;;;;;;;6.17;4.33;;;;;;;11.53;76.57;98445.21;1764315;81;21104;-62
2022/09/01 23:14:18;;;;;;;8.58;4.65;;;;;;;11.52;76.65;98447.63;1767881;80;21655;-62
2022/09/01 23:16:46;;;;;;;7.65;3.95;;;;;;;11.47;76.74;98445.55;1764557;80;20869;-63
2022/09/01 23:19:12;;;;;;;8.10;2.98;;;;;;;11.43;77.02;98448.53;1768748;80;21052;-62
2022/09/01 23:21:39;;;;;;;8.18;3.10;;;;;;;11.36;77.25;98452.09;1769314;80;21021;-63
2022/09/01 23:24:07;;;;;;;6.30;3.60;;;;;;;11.30;77.14;98443.84;1768944;80;20896;-63
2022/09/01 23:26:35;;;;;;;7.87;3.72;;;;;;;11.29;76.73;98440.89;1763733;80;20885;-62
2022/09/01 23:29:02;;;;;;;6.05;3.60;;;;;;;11.28;76.62;98451.38;1763750;80;20929;-62
2022/09/01 23:31:30;;;;;;;6.05;3.98;;;;;;;11.25;76.60;98445.23;1764366;81;20909;-63
2022/09/01 23:33:57;;;;;;;6.75;3.60;;;;;;;11.21;76.51;98446.89;1764258;81;20873;-62
2022/09/01 23:36:25;;;;;;;7.60;3.80;;;;;;;11.19;76.89;98450.41;1773291;80;21420;-62
2022/09/01 23:38:52;;;;;;;6.78;3.77;;;;;;;11.12;77.21;98444.00;1764837;80;20922;-62
2022/09/01 23:41:22;;;;;;;8.40;4.00;;;;;;;11.06;77.56;98453.19;1777935;80;21415;-62
2022/09/01 23:43:50;;;;;;;6.08;3.98;;;;;;;11.05;78.08;98456.13;1763936;80;20956;-63
2022/09/01 23:46:20;;;;;;;6.85;4.22;;;;;;;11.09;78.18;98453.97;1763853;80;20918;-63
2022/09/01 23:48:47;;;;;;;6.97;3.98;;;;;;;11.08;78.03;98451.55;1769097;80;21089;-63
2022/09/01 23:51:13;;;;;;;7.20;4.45;;;;;;;11.10;78.17;98452.88;1762316;80;21485;-62
2022/09/01 23:53:40;;;;;;;7.00;4.20;;;;;;;11.12;78.03;98456.60;1767139;80;20939;-63
2022/09/01 23:56:11;;;;;;;7.85;3.95;;;;;;;11.05;77.96;98458.81;1766709;80;20936;-63
2022/09/01 23:58:38;;;;;;;7.45;3.90;;;;;;;11.00;78.03;98457.78;1764798;80;21395;-63
